Time;durP1;ratioP1;P1;durP2;ratioP2;P2;SDS_P1;SDS_P2;PMS_P1;PMS_P2;Temp;Humidity;BMP_temperature;BMP_pressure;BME280_temperature;BME280_humidity;BME280_pressure;Samples;Min_cycle;Max_cycle;Signal;HPM_P1;HPM_P2
2021/05/03 00:01:13;;;;;;;2.90;2.70;;;9.00;99.90;;;;;;5051467;28;20029;-79
2021/05/03 00:03:38;;;;;;;2.70;2.50;;;8.90;99.90;;;;;;5052754;28;20021;-81
2021/05/03 00:06:04;;;;;;;2.60;2.40;;;9.00;99.90;;;;;;5051744;28;20074;-81
2021/05/03 00:08:30;;;;;;;2.70;2.50;;;8.90;99.90;;;;;;5052799;28;20029;-81
2021/05/03 00:10:55;;;;;;;2.80;2.60;;;9.00;99.90;;;;;;5051267;28;20036;-81
2021/05/03 00:13:22;;;;;;;4.30;2.67;;;8.90;99.90;;;;;;5052824;28;20106;-80
2021/05/03 00:15:48;;;;;;;2.92;2.63;;;8.90;99.90;;;;;;5051316;28;20048;-78
2021/05/03 00:18:13;;;;;;;2.45;2.25;;;8.90;99.90;;;;;;5052777;28;20025;-79
2021/05/03 00:20:39;;;;;;;3.05;2.75;;;9.00;99.90;;;;;;5052677;28;20025;-81
2021/05/03 00:23:05;;;;;;;3.17;2.88;;;9.00;99.90;;;;;;5051395;28;20496;-81
2021/05/03 00:25:31;;;;;;;3.05;2.60;;;9.00;99.90;;;;;;5050890;28;20495;-81
2021/05/03 00:27:57;;;;;;;8.10;2.75;;;9.00;99.90;;;;;;5051427;28;20062;-81
2021/05/03 00:30:23;;;;;;;2.90;2.60;;;9.00;99.90;;;;;;5051619;28;20064;-80
2021/05/03 00:32:48;;;;;;;2.60;2.17;;;8.90;99.90;;;;;;5051396;28;20080;-79
2021/05/03 00:35:17;;;;;;;3.20;2.53;;;9.00;99.90;;;;;;5051294;28;20024;-81
2021/05/03 00:37:43;;;;;;;2.60;2.40;;;8.90;99.90;;;;;;5052628;28;20037;-79
2021/05/03 00:40:10;;;;;;;2.42;2.05;;;8.90;99.90;;;;;;5052387;28;20032;-79
2021/05/03 00:42:36;;;;;;;3.15;2.10;;;8.90;99.90;;;;;;5051332;28;20431;-80
2021/05/03 00:45:07;;;;;;;2.10;1.90;;;8.90;99.90;;;;;;5051595;28;20101;-80
2021/05/03 00:47:34;;;;;;;3.35;2.15;;;8.90;99.90;;;;;;5051393;28;20040;-79
2021/05/03 00:49:59;;;;;;;3.60;2.05;;;8.80;99.90;;;;;;5051485;28;20120;-80
2021/05/03 00:52:25;;;;;;;2.38;2.10;;;8.80;99.90;;;;;;5051054;28;20120;-82
2021/05/03 00:54:50;;;;;;;2.30;2.10;;;8.90;99.90;;;;;;5051214;28;20020;-83
2021/05/03 00:57:16;;;;;;;2.67;2.30;;;8.80;99.90;;;;;;5051400;28;20029;-83
2021/05/03 00:59:42;;;;;;;2.15;1.95;;;8.80;99.90;;;;;;5051032;28;20082;-79
2021/05/03 01:02:08;;;;;;;2.15;1.95;;;8.90;99.90;;;;;;5051087;28;20029;-80
2021/05/03 01:04:34;;;;;;;2.72;2.38;;;9.00;99.90;;;;;;5051380;28;20009;-80
2021/05/03 01:07:00;;;;;;;2.15;1.92;;;9.00;99.90;;;;;;5052279;28;20036;-77
2021/05/03 01:09:25;;;;;;;2.08;1.88;;;8.90;99.90;;;;;;5051274;28;20029;-86
2021/05/03 01:11:51;;;;;;;2.30;1.90;;;8.90;99.90;;;;;;5051121;28;20499;-82
2021/05/03 01:14:17;;;;;;;2.58;1.95;;;8.90;99.90;;;;;;5051168;28;20025;-78
2021/05/03 01:16:42;;;;;;;2.38;2.17;;;8.90;99.90;;;;;;5051092;28;20040;-84
2021/05/03 01:19:08;;;;;;;2.15;1.90;;;8.80;99.90;;;;;;5050993;28;20036;-82
2021/05/03 01:21:34;;;;;;;1.95;1.75;;;8.90;99.90;;;;;;5052324;28;20487;-79
2021/05/03 01:23:59;;;;;;;2.15;1.95;;;8.90;99.90;;;;;;5051040;28;20020;-78
2021/05/03 01:26:25;;;;;;;4.10;2.00;;;9.00;99.90;;;;;;5052328;28;20099;-81
2021/05/03 01:28:50;;;;;;;2.42;2.22;;;8.90;99.90;;;;;;5051119;28;20033;-80
2021/05/03 01:31:17;;;;;;;2.33;2.13;;;8.90;99.90;;;;;;5050960;28;20039;-81
2021/05/03 01:33:42;;;;;;;2.60;2.40;;;8.80;99.90;;;;;;5050874;28;20372;-79
2021/05/03 01:36:08;;;;;;;2.92;2.70;;;9.00;99.90;;;;;;5051054;28;20032;-79
2021/05/03 01:38:34;;;;;;;2.83;2.63;;;8.80;99.90;;;;;;5050865;28;20026;-80
2021/05/03 01:41:00;;;;;;;3.05;2.65;;;8.70;99.90;;;;;;5050586;28;20079;-82
2021/05/03 01:43:27;;;;;;;3.20;2.78;;;8.80;99.90;;;;;;5051254;28;20385;-79
2021/05/03 01:45:56;;;;;;;2.70;2.45;;;8.60;99.90;;;;;;5050941;28;20032;-81
2021/05/03 01:48:27;;;;;;;3.10;2.80;;;8.50;99.90;;;;;;5052314;28;20047;-80
2021/05/03 01:50:53;;;;;;;2.42;2.22;;;8.50;99.90;;;;;;5051166;28;20475;-80
2021/05/03 01:53:20;;;;;;;2.45;2.25;;;8.40;99.90;;;;;;5051836;28;20472;-80
2021/05/03 01:55:50;;;;;;;3.40;2.50;;;8.30;99.90;;;;;;5054248;28;20021;-78
2021/05/03 01:58:18;;;;;;;3.10;2.80;;;8.20;99.90;;;;;;5054293;28;20087;-79
2021/05/03 02:00:44;;;;;;;3.20;2.90;;;8.10;99.90;;;;;;5055662;28;20457;-79
2021/05/03 02:03:23;;;;;;;3.08;2.72;;;8.00;99.90;;;;;;5054493;28;20035;-79
2021/05/03 02:05:49;;;;;;;3.05;2.40;;;8.10;99.90;;;;;;5055356;28;20529;-81
2021/05/03 02:08:16;;;;;;;4.88;2.70;;;8.10;99.90;;;;;;5054306;28;20060;-82
2021/05/03 02:10:42;;;;;;;2.30;2.03;;;8.10;99.90;;;;;;5054368;28;20350;-81
2021/05/03 02:13:08;;;;;;;2.80;2.17;;;8.10;99.90;;;;;;5054838;28;20065;-81
2021/05/03 02:15:34;;;;;;;2.38;2.17;;;8.20;99.90;;;;;;5054824;28;20380;-80
2021/05/03 02:18:00;;;;;;;2.72;2.30;;;8.10;99.90;;;;;;5054610;28;20025;-81
2021/05/03 02:20:27;;;;;;;2.75;2.55;;;8.10;99.90;;;;;;5054638;28;20032;-80
2021/05/03 02:22:53;;;;;;;3.75;3.17;;;8.00;99.90;;;;;;5055576;28;20457;-82
2021/05/03 02:25:19;;;;;;;4.20;3.30;;;8.10;99.90;;;;;;5055600;28;20385;-81
2021/05/03 02:27:44;;;;;;;3.30;2.80;;;8.10;99.90;;;;;;5054086;28;20040;-79
2021/05/03 02:30:11;;;;;;;6.22;2.83;;;8.10;99.90;;;;;;5054086;28;20410;-78
2021/05/03 02:32:38;;;;;;;5.03;3.50;;;8.10;99.90;;;;;;5054539;28;20594;-81
2021/05/03 02:35:17;;;;;;;3.97;3.20;;;8.20;99.90;;;;;;5055450;28;20029;-81
2021/05/03 02:37:48;;;;;;;3.55;3.25;;;8.20;99.90;;;;;;5054078;28;20102;-80
2021/05/03 02:40:16;;;;;;;2.97;2.78;;;8.20;99.90;;;;;;5055178;28;20048;-81
2021/05/03 02:42:47;;;;;;;4.50;3.05;;;8.10;99.90;;;;;;5054241;28;20044;-79
2021/05/03 02:45:13;;;;;;;4.93;3.28;;;8.20;99.90;;;;;;5054240;28;20025;-81
2021/05/03 02:47:39;;;;;;;4.35;3.90;;;8.20;99.90;;;;;;5053887;28;20033;-80
2021/05/03 02:50:06;;;;;;;4.38;3.75;;;8.10;99.90;;;;;;5054117;28;20024;-81
2021/05/03 02:52:31;;;;;;;6.38;4.15;;;8.10;99.90;;;;;;5054123;28;20551;-80
2021/05/03 02:54:57;;;;;;;4.55;4.15;;;8.00;99.90;;;;;;5054393;28;20028;-81
2021/05/03 02:57:22;;;;;;;4.40;4.00;;;8.10;99.90;;;;;;5054246;28;20036;-82
2021/05/03 02:59:48;;;;;;;3.30;3.00;;;8.10;99.90;;;;;;5053865;28;20021;-82
2021/05/03 03:02:14;;;;;;;3.78;3.35;;;8.00;99.90;;;;;;5054152;28;20029;-81
2021/05/03 03:04:39;;;;;;;3.40;3.10;;;8.10;99.90;;;;;;5053057;28;20017;-83
2021/05/03 03:07:05;;;;;;;3.42;3.13;;;8.00;99.90;;;;;;5053867;28;20037;-82
2021/05/03 03:09:30;;;;;;;4.60;3.20;;;7.90;99.90;;;;;;5053678;28;20032;-83
2021/05/03 03:11:58;;;;;;;4.63;3.50;;;8.10;99.90;;;;;;5054964;28;20041;-79
2021/05/03 03:14:24;;;;;;;4.05;3.58;;;8.10;99.90;;;;;;5053461;28;20495;-82
2021/05/03 03:16:50;;;;;;;3.40;3.10;;;8.00;99.90;;;;;;5053532;28;20029;-79
2021/05/03 03:19:15;;;;;;;4.50;3.55;;;8.00;99.90;;;;;;5053446;28;20399;-79
2021/05/03 03:21:41;;;;;;;3.78;3.47;;;8.00;99.90;;;;;;5053286;28;20025;-77
2021/05/03 03:24:07;;;;;;;5.28;3.03;;;8.00;99.90;;;;;;5052804;28;20021;-79
2021/05/03 03:26:33;;;;;;;3.08;2.78;;;8.00;99.90;;;;;;5053720;28;20564;-79
2021/05/03 03:28:59;;;;;;;3.63;3.30;;;8.00;99.90;;;;;;5053808;28;20100;-80
2021/05/03 03:31:24;;;;;;;3.75;3.45;;;8.00;99.90;;;;;;5052469;28;20468;-83
2021/05/03 03:33:50;;;;;;;3.72;3.30;;;7.90;99.90;;;;;;5054172;28;20060;-82
2021/05/03 03:36:16;;;;;;;6.57;3.17;;;8.00;99.90;;;;;;5054120;28;20095;-81
2021/05/03 03:38:41;;;;;;;4.53;3.80;;;8.00;99.90;;;;;;5052843;28;20021;-79
2021/05/03 03:41:07;;;;;;;3.53;3.17;;;7.90;99.90;;;;;;5054129;28;20024;-77
2021/05/03 03:43:33;;;;;;;4.00;3.60;;;7.90;99.90;;;;;;5052581;28;20094;-82
2021/05/03 03:45:59;;;;;;;4.18;3.78;;;7.90;99.90;;;;;;5053304;28;20032;-83
2021/05/03 03:48:25;;;;;;;3.80;3.10;;;7.90;99.90;;;;;;5053138;28;20029;-82
2021/05/03 03:50:51;;;;;;;4.53;4.10;;;8.50;99.90;;;;;;5052904;28;20418;-83
2021/05/03 03:53:16;;;;;;;4.82;3.45;;;8.50;99.90;;;;;;5055759;28;20029;-80
2021/05/03 03:55:42;;;;;;;3.70;3.40;;;8.40;99.90;;;;;;5058221;28;20105;-79
2021/05/03 03:58:08;;;;;;;3.35;3.05;;;8.30;99.90;;;;;;5053900;28;20431;-81
2021/05/03 04:00:33;;;;;;;4.10;3.65;;;8.20;99.90;;;;;;5052634;28;20028;-80
2021/05/03 04:03:05;;;;;;;6.45;4.35;;;8.00;99.90;;;;;;5052343;28;20025;-79
2021/05/03 04:11:51;;;;;;;5.15;4.65;;;7.90;99.90;;;;;;5011296;28;20030;-79
2021/05/03 04:21:05;;;;;;;6.22;3.90;;;8.00;99.90;;;;;;5052956;28;20112;-81
2021/05/03 04:27:37;;;;;;;6.47;4.75;;;8.10;99.90;;;;;;5053006;28;20063;-81
2021/05/03 04:30:13;;;;;;;7.78;4.70;;;8.20;99.90;;;;;;5051482;28;20083;-81
2021/05/03 04:32:39;;;;;;;8.73;4.82;;;8.30;99.90;;;;;;5051645;28;20119;-81
2021/05/03 04:35:05;;;;;;;7.78;4.70;;;8.40;99.90;;;;;;5052921;28;20108;-81
2021/05/03 04:37:31;;;;;;;6.40;4.20;;;8.40;99.90;;;;;;5051303;28;20035;-80
2021/05/03 04:39:57;;;;;;;3.58;3.28;;;8.50;99.90;;;;;;5051407;28;20124;-81
2021/05/03 04:42:23;;;;;;;4.93;3.58;;;8.50;99.90;;;;;;5052795;28;20028;-78
2021/05/03 04:44:48;;;;;;;4.30;3.10;;;10.70;99.90;;;;;;5052630;28;20025;-82
2021/05/03 04:47:14;;;;;;;10.60;9.63;;;11.10;99.90;;;;;;5052854;28;20384;-78
2021/05/03 04:49:40;;;;;;;3.78;3.42;;;11.70;99.90;;;;;;5052997;28;20364;-79
2021/05/03 04:52:06;;;;;;;9.77;8.80;;;11.70;98.90;;;;;;5053109;28;20041;-77
2021/05/03 04:54:32;;;;;;;6.35;5.18;;;12.00;99.90;;;;;;5052501;28;20025;-79
2021/05/03 04:56:58;;;;;;;5.40;4.90;;;12.20;97.60;;;;;;5052804;28;20025;-79
2021/05/03 04:59:23;;;;;;;5.82;5.07;;;11.50;99.90;;;;;;5052310;28;20028;-79
2021/05/03 05:01:49;;;;;;;9.98;6.20;;;11.90;99.80;;;;;;5050773;28;20361;-79
2021/05/03 05:04:15;;;;;;;18.98;9.60;;;12.30;99.40;;;;;;5052135;28;20483;-80
2021/05/03 05:06:40;;;;;;;4.93;4.43;;;12.00;99.50;;;;;;5051958;28;20021;-80
2021/05/03 05:09:08;;;;;;;11.65;4.43;;;11.80;99.90;;;;;;5050687;28;20346;-78
2021/05/03 05:11:34;;;;;;;8.18;4.95;;;11.70;98.90;;;;;;5050319;28;20037;-79
2021/05/03 05:14:01;;;;;;;7.22;5.00;;;12.00;99.20;;;;;;5050657;28;20041;-81
2021/05/03 05:16:28;;;;;;;25.15;18.13;;;12.80;99.00;;;;;;5052462;28;20021;-81
2021/05/03 05:18:53;;;;;;;17.50;15.48;;;12.60;98.50;;;;;;5052005;28;20068;-79
2021/05/03 05:21:19;;;;;;;10.93;8.30;;;12.40;98.80;;;;;;5050545;28;20036;-80
2021/05/03 05:23:45;;;;;;;32.53;7.85;;;12.20;99.10;;;;;;5050794;28;20032;-79
2021/05/03 05:26:11;;;;;;;10.75;4.68;;;12.30;99.50;;;;;;5051120;28;20098;-76
2021/05/03 05:28:37;;;;;;;4.53;3.88;;;12.10;98.70;;;;;;5055226;28;20032;-78
2021/05/03 05:31:03;;;;;;;4.95;3.40;;;12.40;97.80;;;;;;5054331;28;20116;-78
2021/05/03 05:33:29;;;;;;;7.20;3.47;;;12.60;98.20;;;;;;5054004;28;20116;-78
2021/05/03 05:35:55;;;;;;;9.52;4.30;;;12.50;97.80;;;;;;5054439;28;20417;-78
2021/05/03 05:38:21;;;;;;;16.23;4.57;;;12.70;97.10;;;;;;5054107;28;20025;-79
2021/05/03 05:40:46;;;;;;;9.65;3.83;;;12.50;96.20;;;;;;5055752;28;20025;-77
2021/05/03 05:43:13;;;;;;;10.88;4.60;;;12.50;97.70;;;;;;5054562;28;20025;-79
2021/05/03 05:45:39;;;;;;;318.80;275.38;;;12.60;97.40;;;;;;5055810;28;20028;-80
2021/05/03 05:48:05;;;;;;;8.98;5.72;;;12.40;97.80;;;;;;5055547;28;20419;-80
2021/05/03 05:50:31;;;;;;;5.05;3.80;;;12.30;97.50;;;;;;5053792;28;20053;-79
2021/05/03 05:52:57;;;;;;;21.98;6.07;;;12.00;98.30;;;;;;5055390;28;20064;-82
2021/05/03 05:55:23;;;;;;;9.40;5.38;;;11.80;99.90;;;;;;5055392;28;20029;-79
2021/05/03 05:57:49;;;;;;;6.10;4.72;;;11.90;99.70;;;;;;5054192;28;20354;-80
2021/05/03 06:00:15;;;;;;;8.43;4.45;;;11.80;99.10;;;;;;5054352;28;20053;-79
2021/05/03 06:02:41;;;;;;;9.23;4.28;;;11.60;99.90;;;;;;5055395;28;20021;-80
2021/05/03 06:05:07;;;;;;;8.50;4.45;;;11.90;99.80;;;;;;5053907;28;20102;-78
2021/05/03 06:07:33;;;;;;;4.55;3.60;;;12.40;98.80;;;;;;5053728;28;20035;-83
2021/05/03 06:09:59;;;;;;;14.65;4.60;;;12.30;98.40;;;;;;5055227;28;20096;-78
2021/05/03 06:12:24;;;;;;;19.77;4.65;;;12.70;97.60;;;;;;5055193;28;20029;-78
2021/05/03 06:14:52;;;;;;;14.48;3.92;;;12.50;98.80;;;;;;5053294;28;20029;-78
2021/05/03 06:17:18;;;;;;;5.05;4.13;;;13.00;99.50;;;;;;5054787;28;20045;-82
2021/05/03 06:19:44;;;;;;;133.60;10.20;;;13.10;95.10;;;;;;5053343;28;20028;-81
2021/05/03 06:22:10;;;;;;;214.70;15.52;;;13.50;96.20;;;;;;5053830;28;20027;-82
2021/05/03 06:24:36;;;;;;;75.03;7.30;;;13.30;96.40;;;;;;5053693;28;20115;-79
2021/05/03 06:27:01;;;;;;;24.75;4.72;;;13.10;95.30;;;;;;5054863;28;20048;-80
2021/05/03 06:29:27;;;;;;;13.57;3.85;;;12.80;96.50;;;;;;5054247;28;20354;-80
2021/05/03 06:31:54;;;;;;;3.65;3.20;;;13.30;95.80;;;;;;5053548;28;20033;-79
2021/05/03 06:34:19;;;;;;;11.93;4.85;;;13.20;94.30;;;;;;5054652;28;20045;-77
2021/05/03 06:36:45;;;;;;;24.38;5.60;;;13.10;95.90;;;;;;5053483;28;20110;-80
2021/05/03 06:39:11;;;;;;;13.95;4.70;;;13.30;94.60;;;;;;5052657;28;20187;-81
2021/05/03 06:41:36;;;;;;;19.30;4.47;;;13.40;93.10;;;;;;5054543;28;20029;-78
2021/05/03 06:44:02;;;;;;;21.35;4.70;;;13.20;94.00;;;;;;5054836;28;20021;-81
2021/05/03 06:46:28;;;;;;;28.40;4.75;;;13.50;93.80;;;;;;5054593;28;20032;-79
2021/05/03 06:48:54;;;;;;;9.18;4.03;;;13.50;92.00;;;;;;5054249;28;20093;-78
2021/05/03 06:51:19;;;;;;;41.38;5.18;;;13.30;90.10;;;;;;5054446;28;20057;-80
2021/05/03 06:53:45;;;;;;;3.70;3.33;;;13.30;92.70;;;;;;5053282;28;20029;-81
2021/05/03 06:56:11;;;;;;;9.32;3.30;;;13.30;86.80;;;;;;5054786;28;20456;-80
2021/05/03 06:58:36;;;;;;;15.02;3.70;;;13.20;90.50;;;;;;5054330;28;20453;-81
2021/05/03 07:01:03;;;;;;;9.57;3.95;;;13.10;87.40;;;;;;5053134;28;20103;-80
2021/05/03 07:03:28;;;;;;;8.70;4.07;;;12.90;86.30;;;;;;5054073;28;20017;-80
2021/05/03 07:05:54;;;;;;;7.43;4.03;;;12.80;84.60;;;;;;5053044;28;20159;-80
2021/05/03 07:08:24;;;;;;;4.93;3.83;;;12.60;88.70;;;;;;5053171;28;20021;-81
2021/05/03 07:10:52;;;;;;;51.63;6.88;;;12.50;87.80;;;;;;5052883;28;20107;-79
2021/05/03 07:13:17;;;;;;;32.00;5.57;;;12.60;84.40;;;;;;5054408;28;20103;-80
2021/05/03 07:15:43;;;;;;;26.02;5.13;;;12.70;87.90;;;;;;5054084;28;20115;-79
2021/05/03 07:18:09;;;;;;;10.13;4.00;;;12.90;88.30;;;;;;5052515;28;20025;-79
2021/05/03 07:20:34;;;;;;;47.90;6.82;;;13.00;83.40;;;;;;5053758;28;20033;-79
2021/05/03 07:23:04;;;;;;;100.47;11.15;;;13.10;82.00;;;;;;5052626;28;20032;-79
2021/05/03 07:25:31;;;;;;;51.58;8.02;;;13.50;81.50;;;;;;5052487;28;20427;-78
2021/05/03 07:27:57;;;;;;;48.25;6.55;;;13.50;81.30;;;;;;5052428;28;20083;-80
2021/05/03 07:30:22;;;;;;;65.25;35.50;;;13.70;79.40;;;;;;5052830;28;20032;-78
2021/05/03 07:32:48;;;;;;;5.03;3.88;;;13.70;75.60;;;;;;5052411;28;20047;-79
2021/05/03 07:35:14;;;;;;;4.95;4.53;;;13.60;73.20;;;;;;5052542;28;20111;-78
2021/05/03 07:37:40;;;;;;;10.95;3.30;;;13.60;75.10;;;;;;5053721;28;20055;-81
2021/05/03 07:40:07;;;;;;;6.30;3.08;;;13.70;74.10;;;;;;5053902;28;20025;-81
2021/05/03 07:42:33;;;;;;;7.32;3.00;;;13.70;69.90;;;;;;5052519;28;20025;-81
2021/05/03 07:44:59;;;;;;;6.28;3.55;;;13.70;71.60;;;;;;5053741;28;20538;-81
2021/05/03 07:47:25;;;;;;;53.15;8.50;;;13.70;64.10;;;;;;5052295;28;20029;-79
2021/05/03 07:49:52;;;;;;;7.38;3.17;;;13.80;69.30;;;;;;5051895;28;20127;-85
2021/05/03 07:52:17;;;;;;;27.65;5.07;;;13.90;63.00;;;;;;5051758;28;20071;-84
2021/05/03 07:54:43;;;;;;;7.07;4.90;;;14.00;65.80;;;;;;5052886;28;20025;-80
2021/05/03 07:57:09;;;;;;;49.75;29.35;;;13.90;63.60;;;;;;5053395;28;20054;-80
2021/05/03 07:59:34;;;;;;;9.32;7.75;;;14.00;68.10;;;;;;5051321;28;20020;-80
2021/05/03 08:02:00;;;;;;;33.15;15.25;;;14.00;62.80;;;;;;5051598;28;20029;-79
2021/05/03 08:04:26;;;;;;;5.55;4.18;;;14.30;67.30;;;;;;5051612;28;20364;-78
2021/05/03 08:06:57;;;;;;;3.85;3.30;;;14.40;58.20;;;;;;5052002;28;20472;-80
2021/05/03 08:09:27;;;;;;;6.97;3.38;;;14.30;55.70;;;;;;5052155;28;20040;-79
2021/05/03 08:11:53;;;;;;;7.32;2.85;;;14.20;56.40;;;;;;5051712;28;20178;-80
2021/05/03 08:14:21;;;;;;;11.82;3.40;;;14.20;58.80;;;;;;5052098;28;20032;-80
2021/05/03 08:16:53;;;;;;;5.85;3.38;;;14.20;56.50;;;;;;5051972;28;20025;-83
2021/05/03 08:19:19;;;;;;;348.13;22.10;;;14.20;57.90;;;;;;5051825;28;20021;-81
2021/05/03 08:21:45;;;;;;;25.25;4.28;;;14.10;60.70;;;;;;5052729;28;20036;-79
2021/05/03 08:24:10;;;;;;;25.95;3.83;;;14.10;56.50;;;;;;5051413;28;20025;-79
2021/05/03 08:26:36;;;;;;;190.82;15.25;;;14.00;58.40;;;;;;5051176;28;20041;-78
2021/05/03 08:29:02;;;;;;;31.55;4.63;;;14.00;61.00;;;;;;5056682;28;20083;-77
2021/05/03 08:31:28;;;;;;;22.08;3.60;;;14.00;58.70;;;;;;5056842;28;20041;-80
2021/05/03 08:33:54;;;;;;;6.15;3.22;;;13.90;55.50;;;;;;5051133;28;20054;-80
2021/05/03 08:36:20;;;;;;;39.28;5.13;;;13.80;54.60;;;;;;5053406;28;20029;-80
2021/05/03 08:38:45;;;;;;;10.43;3.40;;;14.00;61.00;;;;;;5056560;28;20013;-81
2021/05/03 08:41:13;;;;;;;29.52;4.10;;;14.00;56.70;;;;;;5052163;28;20021;-81
2021/05/03 08:43:41;;;;;;;83.18;7.60;;;14.00;56.20;;;;;;5052434;28;20090;-79
2021/05/03 08:46:09;;;;;;;52.83;5.22;;;14.00;53.50;;;;;;5051275;28;20061;-78
2021/05/03 08:48:41;;;;;;;33.10;3.97;;;14.10;55.90;;;;;;5052754;28;20017;-79
2021/05/03 08:54:18;;;;;;;7.68;3.42;;;14.20;54.70;;;;;;5015558;28;20440;-80
2021/05/03 08:56:43;;;;;;;11.18;2.97;;;14.40;55.30;;;;;;5051057;28;20078;-78
2021/05/03 08:59:10;;;;;;;3.70;3.00;;;14.40;56.10;;;;;;5051101;28;20134;-80
2021/05/03 09:01:36;;;;;;;20.30;5.03;;;14.60;56.50;;;;;;5052099;28;20030;-83
2021/05/03 09:04:03;;;;;;;4.72;2.50;;;14.70;57.30;;;;;;5051198;28;20460;-79
2021/05/03 09:06:29;;;;;;;49.08;12.70;;;14.90;57.10;;;;;;5051264;28;20041;-79
2021/05/03 09:09:06;;;;;;;10.52;3.05;;;15.10;57.00;;;;;;5050943;28;20040;-79
2021/05/03 09:11:34;;;;;;;3.03;2.28;;;15.30;57.40;;;;;;5051114;28;20021;-80
2021/05/03 09:14:08;;;;;;;4.72;2.30;;;15.40;50.10;;;;;;5051421;28;20067;-80
2021/05/03 09:16:40;;;;;;;26.83;3.55;;;15.30;50.00;;;;;;5050998;28;20465;-80
2021/05/03 09:19:05;;;;;;;30.80;3.03;;;15.50;50.30;;;;;;5051469;28;20060;-81
2021/05/03 09:21:33;;;;;;;32.17;3.80;;;15.50;47.70;;;;;;5051793;28;20064;-80
2021/05/03 09:24:14;;;;;;;12.55;2.60;;;15.50;51.50;;;;;;5052990;28;20013;-82
2021/05/03 09:27:00;;;;;;;6.82;2.35;;;15.50;47.90;;;;;;5051660;28;20048;-81
2021/05/03 09:29:31;;;;;;;2.88;2.00;;;15.40;46.00;;;;;;5052593;28;20064;-80
2021/05/03 09:32:04;;;;;;;4.40;2.00;;;15.40;45.60;;;;;;5052717;28;20033;-80
2021/05/03 09:34:32;;;;;;;41.58;3.78;;;15.20;44.80;;;;;;5052452;28;20021;-80
2021/05/03 09:37:25;;;;;;;17.65;2.97;;;15.30;51.00;;;;;;5067765;28;20361;-80
2021/05/03 09:39:58;;;;;;;20.88;2.78;;;15.50;44.10;;;;;;5051066;28;20057;-81
2021/05/03 09:42:40;;;;;;;36.47;3.92;;;15.70;47.90;;;;;;5051187;28;20021;-82
2021/05/03 09:45:09;;;;;;;36.63;4.18;;;15.60;49.40;;;;;;5051209;28;20036;-79
2021/05/03 09:47:36;;;;;;;15.55;2.75;;;15.70;49.60;;;;;;5050643;28;20091;-79
2021/05/03 09:50:13;;;;;;;4.38;2.38;;;15.80;48.90;;;;;;5050891;28;20024;-79
2021/05/03 09:52:59;;;;;;;3.10;1.95;;;15.70;46.10;;;;;;5050418;28;20116;-79
2021/05/03 09:55:40;;;;;;;3.15;1.70;;;15.70;44.10;;;;;;5051974;28;20017;-79
2021/05/03 09:58:12;;;;;;;5.03;1.52;;;15.60;44.70;;;;;;5057098;28;20373;-80
2021/05/03 10:00:42;;;;;;;9.15;1.80;;;15.80;44.00;;;;;;5054531;28;20597;-79
2021/05/03 10:03:33;;;;;;;9.00;2.05;;;16.10;45.80;;;;;;5050611;28;20110;-79
2021/05/03 10:05:59;;;;;;;252.07;15.98;;;16.40;46.00;;;;;;5048215;28;20186;-80
2021/05/03 10:08:26;;;;;;;7.82;1.67;;;16.60;45.10;;;;;;5050320;28;20032;-79
2021/05/03 10:10:55;;;;;;;42.83;3.50;;;16.60;44.50;;;;;;5050223;28;20025;-77
2021/05/03 10:13:21;;;;;;;32.58;3.30;;;16.70;42.60;;;;;;5050321;28;20455;-79
2021/05/03 10:15:47;;;;;;;3.42;1.73;;;16.60;45.50;;;;;;5053906;28;20025;-78
2021/05/03 10:18:18;;;;;;;7.68;1.83;;;16.70;41.60;;;;;;5054906;28;20560;-82
2021/05/03 10:20:45;;;;;;;2.63;1.75;;;16.50;42.30;;;;;;5053689;28;20511;-78
2021/05/03 10:23:13;;;;;;;2.88;1.50;;;16.60;42.50;;;;;;5053850;28;20107;-79
2021/05/03 10:25:39;;;;;;;3.83;1.33;;;16.60;41.50;;;;;;5053754;28;20029;-79
2021/05/03 10:28:05;;;;;;;6.18;1.80;;;16.70;43.70;;;;;;5054831;28;20037;-79
2021/05/03 10:30:38;;;;;;;2.88;1.45;;;16.70;44.10;;;;;;5054844;28;20024;-80
2021/05/03 10:33:09;;;;;;;5.53;1.65;;;16.90;42.80;;;;;;5053496;28;20524;-81
2021/05/03 10:35:48;;;;;;;12.45;2.45;;;16.80;44.50;;;;;;5053677;28;20099;-81
2021/05/03 10:38:36;;;;;;;63.53;5.18;;;16.60;45.30;;;;;;5053565;28;20028;-78
2021/05/03 10:41:03;;;;;;;41.95;3.30;;;16.50;43.30;;;;;;5054697;28;20021;-80
2021/05/03 10:43:43;;;;;;;4.25;1.60;;;16.70;44.00;;;;;;5053086;28;20035;-79
2021/05/03 10:47:00;;;;;;;32.40;2.50;;;16.70;40.90;;;;;;5054193;28;20021;-81
2021/05/03 10:49:03;;;;;;;43.55;4.43;;;16.60;42.00;;;;;;5047836;28;20047;-80
2021/05/03 10:51:41;;;;;;;14.90;2.58;;;16.60;42.50;;;;;;5054082;28;20456;-79
2021/05/03 10:54:38;;;;;;;3.63;2.22;;;16.60;42.50;;;;;;5070863;28;20021;-82
2021/05/03 10:57:16;;;;;;;2.28;1.48;;;16.50;44.70;;;;;;5051185;28;20124;-78
2021/05/03 10:59:49;;;;;;;8.75;1.60;;;16.40;42.70;;;;;;5054421;28;20025;-76
2021/05/03 11:02:16;;;;;;;11.23;3.42;;;16.20;44.80;;;;;;5053046;28;20020;-78
2021/05/03 11:05:12;;;;;;;3.15;1.40;;;16.10;43.90;;;;;;5053993;28;20067;-78
2021/05/03 11:08:06;;;;;;;3.38;1.75;;;15.80;44.30;;;;;;5054305;28;20035;-78
2021/05/03 11:11:02;;;;;;;2.53;1.38;;;15.70;43.50;;;;;;5053958;28;20029;-76
2021/05/03 11:13:36;;;;;;;2.92;1.48;;;15.60;43.20;;;;;;5053204;28;20037;-75
2021/05/03 11:16:27;;;;;;;2.80;1.17;;;15.60;45.60;;;;;;5053752;28;20480;-77
2021/05/03 11:18:55;;;;;;;8.90;5.32;;;15.70;43.30;;;;;;5069227;28;20051;-78
2021/05/03 11:21:49;;;;;;;3.25;2.25;;;15.80;45.60;;;;;;5054060;28;20036;-78
2021/05/03 11:27:01;;;;;;;2.70;1.38;;;15.90;44.40;;;;;;5053490;28;20067;-78
2021/05/03 11:30:12;;;;;;;2.05;1.45;;;16.00;44.50;;;;;;5053045;28;20469;-78
2021/05/03 11:32:17;;;;;;;5.47;1.23;;;15.90;42.60;;;;;;5047903;28;20345;-78
2021/05/03 11:34:53;;;;;;;62.28;52.35;;;15.80;43.40;;;;;;5053834;28;20032;-76
2021/05/03 11:37:27;;;;;;;11.98;9.00;;;15.80;45.40;;;;;;5053396;28;20025;-79
2021/05/03 11:45:06;;;;;;;5.90;1.92;;;15.80;44.60;;;;;;5053885;28;20025;-80
2021/05/03 11:47:42;;;;;;;22.85;3.55;;;16.00;43.90;;;;;;5052476;28;20025;-82
2021/05/03 11:50:09;;;;;;;46.35;4.00;;;16.20;43.40;;;;;;5052502;28;20131;-82
2021/05/03 11:52:37;;;;;;;115.88;9.15;;;16.20;44.00;;;;;;5052567;28;20104;-78
2021/05/03 11:55:10;;;;;;;170.20;10.05;;;16.00;42.80;;;;;;5052456;28;20025;-80
2021/05/03 11:57:40;;;;;;;116.25;10.13;;;15.70;44.10;;;;;;5053756;28;20028;-82
2021/05/03 12:00:08;;;;;;;39.78;4.57;;;15.80;44.50;;;;;;5053392;28;20093;-82
2021/05/03 12:02:34;;;;;;;4.72;1.42;;;15.80;44.00;;;;;;5052080;28;20116;-78
2021/05/03 12:05:00;;;;;;;16.30;2.10;;;15.80;42.90;;;;;;5052405;28;20057;-80
2021/05/03 12:07:32;;;;;;;4.75;1.75;;;15.70;43.30;;;;;;5052138;28;20039;-80
2021/05/03 12:10:01;;;;;;;2.42;1.27;;;15.70;43.40;;;;;;5052127;28;20082;-81
2021/05/03 12:12:39;;;;;;;19.40;2.60;;;15.80;41.30;;;;;;5068120;28;20041;-80
2021/05/03 12:15:25;;;;;;;25.27;2.45;;;15.80;43.60;;;;;;5051801;28;20021;-78
2021/05/03 12:17:50;;;;;;;;;;;15.80;44.00;;;;;;5053366;28;20534;-78
2021/05/03 12:20:17;;;;;;;;;;;15.90;44.40;;;;;;5053436;28;19905;-80
2021/05/03 12:23:04;;;;;;;7.45;1.48;;;15.90;43.80;;;;;;5068374;28;20341;-79
2021/05/03 12:25:37;;;;;;;3.22;1.10;;;15.90;44.50;;;;;;5051446;28;20091;-80
2021/05/03 12:28:26;;;;;;;16.92;2.00;;;15.90;42.20;;;;;;5051338;28;20358;-80
2021/05/03 12:30:57;;;;;;;2.08;1.10;;;16.10;44.20;;;;;;5052437;28;20060;-79
2021/05/03 12:33:23;;;;;;;3.78;1.50;;;16.20;44.70;;;;;;5051045;28;20456;-82
2021/05/03 12:35:51;;;;;;;20.02;1.90;;;16.20;43.40;;;;;;5051227;28;20487;-82
2021/05/03 12:38:18;;;;;;;6.55;1.40;;;16.20;45.50;;;;;;5050717;28;20036;-78
2021/05/03 12:40:44;;;;;;;14.10;1.67;;;16.10;45.60;;;;;;5051445;28;20411;-80
2021/05/03 12:43:12;;;;;;;8.77;1.48;;;16.10;47.90;;;;;;5051189;28;20032;-79
2021/05/03 12:54:14;;;;;;;190.73;13.43;;;16.30;44.00;;;;;;5052850;28;20059;-82
2021/05/03 12:57:25;;;;;;;40.20;4.35;;;16.10;42.50;;;;;;5050941;28;20457;-79
2021/05/03 12:59:58;;;;;;;14.85;4.47;;;16.10;44.40;;;;;;5051196;28;20499;-80
2021/05/03 13:04:59;;;;;;;14.63;3.35;;;16.40;46.30;;;;;;5052047;28;20025;-78
2021/05/03 13:29:04;;;;;;;55.58;27.80;;;15.90;43.50;;;;;;5052038;28;20368;-78
2021/05/03 13:31:31;;;;;;;10.75;3.90;;;15.90;43.80;;;;;;5067484;28;20044;-82
2021/05/03 13:33:58;;;;;;;25.45;12.10;;;15.90;42.90;;;;;;5051810;28;20033;-79
2021/05/03 13:36:24;;;;;;;6.90;4.15;;;16.00;43.30;;;;;;5051706;28;20098;-78
2021/05/03 13:38:50;;;;;;;10.63;4.68;;;16.10;42.20;;;;;;5050484;28;20478;-79
2021/05/03 13:41:16;;;;;;;13.90;5.35;;;16.00;43.00;;;;;;5050655;28;20115;-78
2021/05/03 13:43:42;;;;;;;8.45;3.10;;;16.10;43.30;;;;;;5051871;28;20431;-78
2021/05/03 13:46:08;;;;;;;53.83;23.83;;;16.10;43.00;;;;;;5051646;28;20025;-77
2021/05/03 13:48:33;;;;;;;11.82;3.40;;;16.10;41.20;;;;;;5052143;28;20111;-80
2021/05/03 13:50:59;;;;;;;7.20;1.83;;;16.00;44.00;;;;;;5055575;28;20021;-78
2021/05/03 13:53:25;;;;;;;22.95;8.68;;;16.00;39.30;;;;;;5055480;28;20036;-79